Time;durP1;ratioP1;P1;durP2;ratioP2;P2;SDS_P1;SDS_P2;PMS_P1;PMS_P2;Temp;Humidity;BMP_temperature;BMP_pressure;BME280_temperature;BME280_humidity;BME280_pressure;Samples;Min_cycle;Max_cycle;Signal;HPM_P1;HPM_P2
2023/10/10 00:01:39;;;;;;;0.00;0.00;;;;;;;;;;4967553;28;20042;-52
2023/10/10 00:04:06;;;;;;;0.00;0.00;;;;;;;;;;4974093;28;20089;-54
2023/10/10 00:06:38;;;;;;;0.00;0.00;;;;;;;;;;4975140;28;20042;-54
2023/10/10 00:09:06;;;;;;;0.00;0.00;;;;;;;;;;4973363;28;20963;-55
2023/10/10 00:11:32;;;;;;;0.00;0.00;;;;;;;;;;4975798;28;20038;-54
2023/10/10 00:14:15;;;;;;;0.00;0.00;;;;;;;;;;4977197;28;20046;-56
2023/10/10 00:16:41;;;;;;;0.00;0.00;;;;;;;;;;4974222;28;20553;-53
2023/10/10 00:21:54;;;;;;;0.00;0.00;;;;;;;;;;4960663;28;20536;-51
2023/10/10 00:24:20;;;;;;;0.00;0.00;;;;;;;;;;4972890;28;20501;-52
2023/10/10 00:26:47;;;;;;;0.00;0.00;;;;;;;;;;4974452;28;20358;-51
2023/10/10 00:29:13;;;;;;;0.00;0.00;;;;;;;;;;4970590;28;20030;-55
2023/10/10 00:31:47;;;;;;;0.00;0.00;;;;;;;;;;4973930;28;20538;-52
2023/10/10 00:34:13;;;;;;;0.00;0.00;;;;;;;;;;4972217;28;20722;-53
2023/10/10 00:36:41;;;;;;;0.00;0.00;;;;;;;;;;4973232;28;20698;-52
2023/10/10 00:41:44;;;;;;;0.00;0.00;;;;;;;;;;4973750;28;20084;-54
2023/10/10 00:44:12;;;;;;;0.00;0.00;;;;;;;;;;4973329;28;20100;-53
2023/10/10 00:46:39;;;;;;;0.00;0.00;;;;;;;;;;4988070;28;20042;-51
2023/10/10 00:49:10;;;;;;;0.00;0.00;;;;;;;;;;4984416;28;20038;-53
2023/10/10 00:51:38;;;;;;;0.00;0.00;;;;;;;;;;4973232;28;20499;-52
2023/10/10 00:54:25;;;;;;;0.00;0.00;;;;;;;;;;4973280;28;20557;-53
2023/10/10 00:56:54;;;;;;;0.00;0.00;;;;;;;;;;4973709;28;20062;-53
2023/10/10 00:59:23;;;;;;;6.22;5.15;;;;;;;;;;4973217;28;20038;-53
2023/10/10 01:01:49;;;;;;;23.02;17.77;;;;;;;;;;4974246;28;20035;-52
2023/10/10 01:04:28;;;;;;;41.72;31.60;;;;;;;;;;4972836;28;20149;-52
2023/10/10 01:06:54;;;;;;;45.22;30.85;;;;;;;;;;4974120;28;20401;-54
2023/10/10 01:09:32;;;;;;;45.35;32.90;;;;;;;;;;4972403;28;20410;-53
2023/10/10 01:11:58;;;;;;;40.40;30.90;;;;;;;;;;4974401;28;20533;-52
2023/10/10 01:14:30;;;;;;;45.13;32.78;;;;;;;;;;4972088;28;20042;-52
2023/10/10 01:16:58;;;;;;;47.28;33.58;;;;;;;;;;4973690;28;20074;-56
2023/10/10 01:19:30;;;;;;;46.00;32.72;;;;;;;;;;4972149;28;20775;-55
2023/10/10 01:21:59;;;;;;;51.70;34.00;;;;;;;;;;4973776;28;20136;-54
2023/10/10 01:24:31;;;;;;;52.08;34.42;;;;;;;;;;4972999;28;20365;-51
2023/10/10 01:27:13;;;;;;;50.58;34.97;;;;;;;;;;4974252;28;20034;-52
2023/10/10 01:32:38;;;;;;;54.38;35.47;;;;;;;;;;4986575;28;20042;-52
2023/10/10 01:35:15;;;;;;;51.65;35.80;;;;;;;;;;4972659;28;20042;-53
2023/10/10 01:37:41;;;;;;;52.42;36.03;;;;;;;;;;4957598;28;20349;-51
2023/10/10 01:40:15;;;;;;;48.67;36.70;;;;;;;;;;4972392;28;20038;-53
2023/10/10 01:42:59;;;;;;;59.92;38.67;;;;;;;;;;4973215;28;20362;-52
2023/10/10 01:45:29;;;;;;;64.63;39.45;;;;;;;;;;4976536;28;20045;-52
2023/10/10 01:48:02;;;;;;;64.32;40.33;;;;;;;;;;4984999;28;21011;-54
2023/10/10 01:50:32;;;;;;;54.13;38.30;;;;;;;;;;4980701;28;20037;-50
2023/10/10 01:52:58;;;;;;;59.42;40.03;;;;;;;;;;4973131;28;20130;-53
2023/10/10 01:55:24;;;;;;;59.25;38.60;;;;;;;;;;4972698;28;20935;-53
2023/10/10 01:57:57;;;;;;;55.08;38.08;;;;;;;;;;4973141;28;20026;-53
2023/10/10 02:00:27;;;;;;;56.35;38.25;;;;;;;;;;4972533;28;20097;-52
2023/10/10 02:02:55;;;;;;;60.42;40.33;;;;;;;;;;4972798;28;20673;-53
2023/10/10 02:08:22;;;;;;;53.75;38.35;;;;;;;;;;4972267;28;20037;-52
2023/10/10 02:10:49;;;;;;;52.67;37.28;;;;;;;;;;4966329;28;20042;-51
2023/10/10 02:13:17;;;;;;;56.17;37.45;;;;;;;;;;4972087;28;20277;-53
2023/10/10 02:15:43;;;;;;;52.92;37.75;;;;;;;;;;4973083;28;20112;-53
2023/10/10 02:18:13;;;;;;;58.80;40.35;;;;;;;;;;4972023;28;20035;-52
2023/10/10 02:23:10;;;;;;;57.65;38.53;;;;;;;;;;4971997;28;20108;-52
2023/10/10 02:25:37;;;;;;;55.50;38.22;;;;;;;;;;4972906;28;20573;-52
2023/10/10 02:28:09;;;;;;;57.67;39.58;;;;;;;;;;4972221;28;20034;-53
2023/10/10 02:30:35;;;;;;;52.72;38.95;;;;;;;;;;4972781;28;20034;-53
2023/10/10 02:33:14;;;;;;;58.10;38.60;;;;;;;;;;4972194;28;20046;-53
2023/10/10 02:38:22;;;;;;;54.50;36.80;;;;;;;;;;4971664;28;20030;-53
2023/10/10 02:40:52;;;;;;;54.85;37.65;;;;;;;;;;4973061;28;20465;-53
2023/10/10 02:43:33;;;;;;;57.25;38.00;;;;;;;;;;4986403;28;20047;-53
2023/10/10 02:46:00;;;;;;;57.63;36.65;;;;;;;;;;4981477;28;20698;-51
2023/10/10 02:48:31;;;;;;;55.95;36.78;;;;;;;;;;4985980;28;20699;-52
2023/10/10 02:51:02;;;;;;;55.90;36.92;;;;;;;;;;4972642;28;20100;-52
2023/10/10 02:53:32;;;;;;;57.28;37.58;;;;;;;;;;4987382;28;20483;-53
2023/10/10 02:56:01;;;;;;;58.35;37.92;;;;;;;;;;4987154;28;20077;-52
2023/10/10 02:58:36;;;;;;;53.97;38.03;;;;;;;;;;4980494;28;20031;-50
2023/10/10 03:01:04;;;;;;;59.60;38.15;;;;;;;;;;4975046;28;20045;-54
2023/10/10 03:03:30;;;;;;;56.33;37.42;;;;;;;;;;4975732;28;20630;-52
2023/10/10 03:06:06;;;;;;;55.88;37.97;;;;;;;;;;4975928;28;20065;-53
2023/10/10 03:11:01;;;;;;;58.92;37.92;;;;;;;;;;4976109;28;20038;-52
2023/10/10 03:13:28;;;;;;;57.58;38.25;;;;;;;;;;4975637;28;20105;-53
2023/10/10 03:19:12;;;;;;;54.78;37.13;;;;;;;;;;4981216;28;20069;-52
2023/10/10 03:29:21;;;;;;;57.47;39.03;;;;;;;;;;4994551;28;20469;-52
2023/10/10 03:31:55;;;;;;;57.47;39.40;;;;;;;;;;4981154;28;20112;-54
2023/10/10 03:34:33;;;;;;;56.30;37.70;;;;;;;;;;4974856;28;20038;-51
2023/10/10 03:39:53;;;;;;;58.80;39.38;;;;;;;;;;4973096;28;20041;-55
2023/10/10 05:24:23;;;;;;;51.38;34.80;;;13.60;99.90;;;;;;4973023;28;20060;-54
2023/10/10 05:26:49;;;;;;;50.47;33.50;;;13.50;99.90;;;;;;4973845;28;20038;-54
2023/10/10 05:29:24;;;;;;;57.35;33.80;;;13.60;99.90;;;;;;4972729;28;20034;-54
2023/10/10 05:31:56;;;;;;;51.10;33.63;;;13.60;99.90;;;;;;4967975;28;20072;-54
2023/10/10 05:34:23;;;;;;;49.17;31.90;;;13.50;99.90;;;;;;4972977;28;21611;-54
2023/10/10 05:36:48;;;;;;;48.88;32.17;;;13.50;99.90;;;;;;4973855;28;20051;-54
2023/10/10 05:39:21;;;;;;;53.92;34.80;;;13.50;99.90;;;;;;4972531;28;20039;-55
2023/10/10 05:41:47;;;;;;;55.70;36.33;;;13.50;99.90;;;;;;4973643;28;20069;-56
2023/10/10 05:44:16;;;;;;;58.20;34.72;;;13.60;99.90;;;;;;4972641;28;20042;-55
2023/10/10 05:46:42;;;;;;;55.13;34.03;;;13.70;99.90;;;;;;4973127;28;20541;-56
2023/10/10 05:49:08;;;;;;;55.92;34.58;;;13.70;99.90;;;;;;4972022;28;20561;-54
2023/10/10 05:51:33;;;;;;;59.28;34.47;;;13.70;99.90;;;;;;4973104;28;20042;-54
2023/10/10 05:53:59;;;;;;;51.30;32.40;;;13.60;99.90;;;;;;4973508;28;20454;-56
2023/10/10 05:56:25;;;;;;;59.47;34.45;;;13.60;99.90;;;;;;4972667;28;20461;-53
2023/10/10 05:58:52;;;;;;;52.90;33.78;;;13.60;99.90;;;;;;4973209;28;20085;-53
2023/10/10 06:01:18;;;;;;;55.38;34.13;;;13.60;99.90;;;;;;4971262;28;20041;-52
2023/10/10 06:03:45;;;;;;;52.45;33.13;;;13.70;99.90;;;;;;4973299;28;20030;-53
2023/10/10 06:06:15;;;;;;;52.78;32.92;;;13.70;99.90;;;;;;4972021;28;20133;-51
2023/10/10 06:08:44;;;;;;;52.60;32.88;;;13.70;99.90;;;;;;4972849;28;20584;-53
2023/10/10 06:11:13;;;;;;;55.30;34.08;;;13.70;99.90;;;;;;4970706;28;20041;-51
2023/10/10 06:13:43;;;;;;;53.72;34.15;;;13.80;99.90;;;;;;4972341;28;20126;-52
2023/10/10 06:16:14;;;;;;;57.08;34.13;;;13.90;99.90;;;;;;4971474;28;20045;-53
2023/10/10 06:18:42;;;;;;;54.35;34.45;;;13.90;99.90;;;;;;4972729;28;20449;-52
2023/10/10 06:21:08;;;;;;;56.90;33.45;;;13.90;99.90;;;;;;4971611;28;20042;-50
2023/10/10 06:23:35;;;;;;;55.30;33.45;;;13.90;99.90;;;;;;4972005;28;20741;-53
2023/10/10 06:26:02;;;;;;;53.80;33.58;;;14.00;99.90;;;;;;4972077;28;20122;-53
2023/10/10 06:28:29;;;;;;;55.67;33.30;;;13.90;99.90;;;;;;4979545;28;20041;-50
2023/10/10 06:30:55;;;;;;;54.05;32.08;;;13.80;99.90;;;;;;4981088;28;20042;-53
2023/10/10 06:33:27;;;;;;;50.33;31.13;;;14.10;99.90;;;;;;4971528;28;20053;-50
2023/10/10 06:41:47;;;;;;;50.67;28.40;;;14.00;99.90;;;;;;4982596;28;20038;-50
2023/10/10 06:44:13;;;;;;;45.97;27.43;;;13.90;99.90;;;;;;4974994;28;20104;-52
2023/10/10 06:46:42;;;;;;;48.33;28.70;;;14.00;99.90;;;;;;4975919;28;20200;-51
2023/10/10 06:49:11;;;;;;;42.35;27.35;;;14.00;99.90;;;;;;4975316;28;20686;-50
2023/10/10 06:51:40;;;;;;;43.28;26.20;;;13.90;99.90;;;;;;4976132;28;20076;-51
2023/10/10 06:54:19;;;;;;;47.53;27.30;;;14.00;99.90;;;;;;4975347;28;20042;-51
2023/10/10 06:56:53;;;;;;;46.53;26.33;;;14.00;99.90;;;;;;4973966;28;20517;-52
2023/10/10 06:59:25;;;;;;;44.70;25.70;;;14.10;99.90;;;;;;4974759;28;20069;-52
2023/10/10 07:01:50;;;;;;;45.92;27.23;;;14.20;99.90;;;;;;4976161;28;20043;-51
2023/10/10 07:04:16;;;;;;;45.13;26.02;;;14.20;99.90;;;;;;4974839;28;20034;-52
2023/10/10 07:06:47;;;;;;;40.00;24.50;;;14.20;99.90;;;;;;4989035;28;20555;-52
2023/10/10 07:09:28;;;;;;;47.97;26.95;;;14.20;99.90;;;;;;4984648;28;20569;-49
2023/10/10 07:12:02;;;;;;;38.25;23.20;;;14.30;99.90;;;;;;4976064;28;20057;-49
2023/10/10 07:14:27;;;;;;;38.92;24.45;;;14.40;99.90;;;;;;4983300;28;20034;-51
2023/10/10 07:16:56;;;;;;;35.58;23.23;;;14.40;99.90;;;;;;4975959;28;20413;-53
2023/10/10 07:19:31;;;;;;;38.08;24.67;;;14.40;99.90;;;;;;4974955;28;20104;-55
2023/10/10 07:21:59;;;;;;;47.83;25.35;;;14.40;99.90;;;;;;4975995;28;20101;-55
2023/10/10 07:24:40;;;;;;;39.25;23.48;;;14.60;99.90;;;;;;4974856;28;20062;-56
2023/10/10 07:27:11;;;;;;;38.10;24.50;;;14.60;99.90;;;;;;4974722;28;20141;-51
2023/10/10 07:32:18;;;;;;;37.85;23.30;;;14.60;99.90;;;;;;4973759;28;20049;-52
2023/10/10 07:34:49;;;;;;;39.03;23.15;;;14.70;99.90;;;;;;4974923;28;20042;-51
2023/10/10 07:37:18;;;;;;;39.83;21.55;;;14.70;99.90;;;;;;4973735;28;20164;-52
2023/10/10 07:39:57;;;;;;;36.95;23.50;;;14.70;99.90;;;;;;4974682;28;20026;-54
2023/10/10 07:42:30;;;;;;;39.70;24.90;;;14.70;99.90;;;;;;4973865;28;20592;-52
2023/10/10 07:44:57;;;;;;;40.67;23.05;;;14.90;99.90;;;;;;4974164;28;20651;-52
2023/10/10 07:47:27;;;;;;;42.83;23.95;;;15.10;99.90;;;;;;4973706;28;20469;-51
2023/10/10 07:49:59;;;;;;;38.63;23.10;;;15.20;99.90;;;;;;4974536;28;20375;-49
2023/10/10 07:52:24;;;;;;;39.08;24.35;;;15.20;99.90;;;;;;4972124;28;20046;-52
2023/10/10 07:55:01;;;;;;;42.00;23.42;;;15.30;99.90;;;;;;4975120;28;20065;-49
2023/10/10 07:57:28;;;;;;;40.17;22.25;;;15.30;99.90;;;;;;4982042;28;20046;-49
2023/10/10 08:00:00;;;;;;;32.25;20.42;;;15.50;99.90;;;;;;4975691;28;20093;-50
2023/10/10 08:05:01;;;;;;;34.28;21.05;;;15.60;99.90;;;;;;4974966;28;20096;-53
2023/10/10 08:07:34;;;;;;;34.22;19.40;;;15.70;99.90;;;;;;4982037;28;20042;-51
2023/10/10 08:10:49;;;;;;;36.63;19.00;;;15.70;99.90;;;;;;4977746;28;20099;-51
2023/10/10 08:12:46;;;;;;;31.13;18.05;;;15.80;99.90;;;;;;4960192;28;20050;-50
2023/10/10 08:15:24;;;;;;;30.27;18.13;;;15.90;99.90;;;;;;4973374;28;20027;-51
2023/10/10 08:17:54;;;;;;;32.03;18.83;;;15.90;99.90;;;;;;4960000;28;20042;-50
2023/10/10 08:23:05;;;;;;;35.38;17.77;;;16.00;99.90;;;;;;4972673;28;20069;-51
2023/10/10 08:25:32;;;;;;;27.52;16.30;;;16.10;99.90;;;;;;4974452;28;20482;-52
2023/10/10 08:27:58;;;;;;;32.83;16.38;;;16.40;99.90;;;;;;4974275;28;20180;-54
2023/10/10 08:30:26;;;;;;;28.58;15.23;;;16.40;99.90;;;;;;4983135;28;20042;-55
2023/10/10 08:32:56;;;;;;;29.13;15.30;;;16.40;99.90;;;;;;4974139;28;20667;-55
2023/10/10 08:35:23;;;;;;;29.33;14.75;;;16.50;99.90;;;;;;4972870;28;20050;-52
2023/10/10 08:37:50;;;;;;;27.38;14.65;;;16.50;99.90;;;;;;4974074;28;20112;-54
2023/10/10 08:40:22;;;;;;;25.42;14.43;;;16.50;99.90;;;;;;4972914;28;20398;-53
2023/10/10 08:42:51;;;;;;;26.10;14.50;;;16.70;99.90;;;;;;4970102;28;20050;-54
2023/10/10 08:45:24;;;;;;;27.25;13.95;;;16.70;99.90;;;;;;4972062;28;20836;-54
2023/10/10 08:48:01;;;;;;;25.75;12.98;;;16.70;99.90;;;;;;4959576;28;20088;-56
2023/10/10 08:50:28;;;;;;;24.00;13.27;;;16.80;99.90;;;;;;4980700;28;20042;-54
2023/10/10 08:52:54;;;;;;;25.90;12.45;;;16.90;99.90;;;;;;4973491;28;20054;-55
2023/10/10 08:55:26;;;;;;;30.27;13.32;;;17.00;99.90;;;;;;4972272;28;20137;-53
2023/10/10 08:57:52;;;;;;;20.65;13.07;;;17.10;99.90;;;;;;4973200;28;20124;-54
2023/10/10 09:00:18;;;;;;;23.98;12.57;;;17.20;99.90;;;;;;4972586;28;20306;-54
2023/10/10 09:02:49;;;;;;;25.52;12.82;;;17.30;99.90;;;;;;4972226;28;20497;-54
2023/10/10 09:05:15;;;;;;;22.98;12.35;;;17.40;99.90;;;;;;4972160;28;20148;-53
2023/10/10 09:07:46;;;;;;;19.45;11.77;;;17.40;99.90;;;;;;4972093;28;20035;-54
2023/10/10 09:10:14;;;;;;;23.35;12.35;;;17.40;99.90;;;;;;4973190;28;20035;-55
2023/10/10 09:13:02;;;;;;;22.20;12.27;;;17.60;99.90;;;;;;4973983;28;20054;-55
2023/10/10 09:15:30;;;;;;;24.80;11.35;;;17.60;99.90;;;;;;4980328;28;20089;-56
2023/10/10 09:18:22;;;;;;;19.58;11.20;;;17.60;99.90;;;;;;4973273;28;20121;-53
2023/10/10 09:20:49;;;;;;;19.80;10.85;;;17.60;99.90;;;;;;4971043;28;20038;-55
2023/10/10 09:23:32;;;;;;;18.75;10.65;;;17.60;99.90;;;;;;4972286;28;20061;-55
2023/10/10 09:28:58;;;;;;;21.40;10.10;;;17.70;99.90;;;;;;4972394;28;20058;-55
2023/10/10 09:31:31;;;;;;;19.55;10.52;;;17.70;99.90;;;;;;4997182;28;20332;-55
2023/10/10 09:33:57;;;;;;;18.33;9.87;;;17.80;99.90;;;;;;4973489;28;20085;-57
2023/10/10 09:36:29;;;;;;;18.25;10.02;;;17.90;99.90;;;;;;4972171;28;20617;-56
2023/10/10 09:39:08;;;;;;;20.95;10.00;;;17.90;99.90;;;;;;4973053;28;20038;-54
2023/10/10 09:49:46;;;;;;;25.35;9.73;;;18.10;99.90;;;;;;4978961;28;20585;-55
2023/10/10 09:55:39;;;;;;;18.88;10.15;;;18.20;99.90;;;;;;4972510;28;20040;-54
2023/10/10 09:58:00;;;;;;;21.13;9.93;;;18.30;99.90;;;;;;4972758;28;20501;-52
2023/10/10 10:00:53;;;;;;;20.85;10.15;;;18.30;99.90;;;;;;4979571;28;20157;-53
2023/10/10 10:06:34;;;;;;;16.67;10.10;;;18.40;99.90;;;;;;4972333;28;20030;-53
2023/10/10 10:09:09;;;;;;;24.23;9.63;;;18.40;99.90;;;;;;4980015;28;20509;-53
2023/10/10 10:11:51;;;;;;;20.52;9.43;;;18.50;99.90;;;;;;4982500;28;20044;-53
2023/10/10 10:14:46;;;;;;;20.60;9.43;;;18.60;99.90;;;;;;4975097;28;20228;-55
2023/10/10 10:20:20;;;;;;;19.00;9.32;;;18.60;99.90;;;;;;4964741;28;20449;-53
2023/10/10 10:22:48;;;;;;;18.70;8.60;;;18.60;99.90;;;;;;4976478;28;20046;-55
2023/10/10 10:25:22;;;;;;;26.27;9.10;;;18.60;99.90;;;;;;4975585;28;20042;-54
2023/10/10 10:27:53;;;;;;;22.00;8.32;;;18.60;99.90;;;;;;4976541;28;20104;-54
2023/10/10 10:32:46;;;;;;;15.98;8.02;;;18.70;99.90;;;;;;4976335;28;20045;-52
2023/10/10 10:35:24;;;;;;;18.90;8.15;;;18.80;99.90;;;;;;4975405;28;20544;-55
2023/10/10 10:38:00;;;;;;;18.52;7.30;;;18.70;99.90;;;;;;4970940;28;20045;-56
2023/10/10 10:40:42;;;;;;;14.70;6.88;;;18.80;99.90;;;;;;4975106;28;20034;-53
2023/10/10 10:43:14;;;;;;;15.48;6.85;;;18.80;99.90;;;;;;4973639;28;20042;-55
2023/10/10 10:45:51;;;;;;;14.00;6.80;;;18.90;99.90;;;;;;4968524;28;20042;-52
2023/10/10 10:48:30;;;;;;;15.20;6.97;;;18.90;99.90;;;;;;4974013;28;20518;-54
2023/10/10 10:51:26;;;;;;;15.38;6.45;;;19.00;99.90;;;;;;4974677;28;20376;-53
2023/10/10 10:53:59;;;;;;;15.63;7.05;;;19.10;99.90;;;;;;4994149;28;20149;-54
2023/10/10 10:59:13;;;;;;;15.02;7.03;;;19.10;99.90;;;;;;4976146;28;20125;-55
2023/10/10 11:01:42;;;;;;;15.00;6.47;;;19.10;99.90;;;;;;4967997;28;20038;-55
2023/10/10 11:04:14;;;;;;;11.65;6.07;;;19.20;99.90;;;;;;4989871;28;20030;-55
2023/10/10 11:06:52;;;;;;;13.30;5.82;;;19.20;99.90;;;;;;4975886;28;20034;-55
2023/10/10 11:09:34;;;;;;;16.60;6.30;;;19.20;99.90;;;;;;4974485;28;20062;-54
2023/10/10 11:12:03;;;;;;;13.60;6.50;;;19.30;99.90;;;;;;4975419;28;20115;-53
2023/10/10 11:14:30;;;;;;;14.38;6.20;;;19.30;99.90;;;;;;4975151;28;20530;-54
2023/10/10 11:16:56;;;;;;;15.48;5.95;;;19.40;99.90;;;;;;4975704;28;20173;-52
2023/10/10 11:21:57;;;;;;;21.13;6.40;;;19.50;99.90;;;;;;4975135;28;20034;-55
2023/10/10 11:24:31;;;;;;;12.40;5.85;;;19.60;99.90;;;;;;4974771;28;20898;-55
2023/10/10 11:32:36;;;;;;;15.32;6.32;;;19.80;99.90;;;;;;4984459;28;20106;-53
2023/10/10 11:35:17;;;;;;;15.10;5.93;;;19.70;99.90;;;;;;4974496;28;20054;-54
2023/10/10 11:37:47;;;;;;;25.15;6.63;;;19.70;99.90;;;;;;4965772;28;20049;-55
2023/10/10 11:42:54;;;;;;;12.18;5.75;;;19.80;99.90;;;;;;4972869;28;20764;-53
2023/10/10 11:45:25;;;;;;;13.82;5.95;;;19.80;99.90;;;;;;4975646;28;20307;-54
2023/10/10 11:47:52;;;;;;;12.32;5.72;;;19.70;99.90;;;;;;4988409;28;20038;-54
2023/10/10 11:50:27;;;;;;;11.63;5.32;;;19.80;99.90;;;;;;4974025;28;20042;-54
2023/10/10 11:53:00;;;;;;;13.23;4.90;;;19.80;99.90;;;;;;4974699;28;20654;-51
2023/10/10 11:55:27;;;;;;;8.60;5.22;;;19.80;99.90;;;;;;4974016;28;20038;-55
2023/10/10 11:58:06;;;;;;;12.07;5.43;;;19.90;99.90;;;;;;4974876;28;20474;-54
2023/10/10 12:00:45;;;;;;;13.68;6.15;;;19.90;99.90;;;;;;4981807;28;20085;-55
2023/10/10 12:03:32;;;;;;;13.90;5.40;;;19.90;99.90;;;;;;4971686;28;20359;-54
2023/10/10 12:05:59;;;;;;;16.05;5.60;;;20.20;99.90;;;;;;4961663;28;20462;-52
2023/10/10 12:08:25;;;;;;;14.23;5.32;;;20.10;99.90;;;;;;4973598;28;20042;-54
2023/10/10 12:10:52;;;;;;;10.77;5.40;;;20.10;99.90;;;;;;4975400;28;20482;-54
2023/10/10 12:15:57;;;;;;;13.80;5.43;;;20.20;99.90;;;;;;4975238;28;20037;-56
2023/10/10 12:18:30;;;;;;;10.68;5.30;;;20.20;99.90;;;;;;4980503;28;20042;-56
2023/10/10 12:20:59;;;;;;;12.75;5.88;;;20.30;99.90;;;;;;4974211;28;20041;-56
2023/10/10 12:23:25;;;;;;;12.60;6.07;;;20.40;99.90;;;;;;4972954;28;20045;-54
2023/10/10 12:25:54;;;;;;;12.20;5.22;;;20.20;99.90;;;;;;4973761;28;20031;-56
2023/10/10 12:28:20;;;;;;;13.98;5.95;;;20.30;99.90;;;;;;4973755;28;20034;-57
2023/10/10 12:30:46;;;;;;;14.15;5.30;;;20.20;99.90;;;;;;4973824;28;20088;-55
2023/10/10 12:33:19;;;;;;;13.75;6.00;;;20.30;99.90;;;;;;4971881;28;20042;-55
2023/10/10 12:35:48;;;;;;;0.00;0.00;;;20.40;99.90;;;;;;4973730;28;20041;-56
2023/10/10 12:38:15;;;;;;;0.00;0.00;;;20.40;99.90;;;;;;4973117;28;20038;-56
2023/10/10 12:40:44;;;;;;;0.00;0.00;;;20.40;99.90;;;;;;4974012;28;20722;-56
2023/10/10 12:43:13;;;;;;;0.00;0.00;;;20.50;99.90;;;;;;4973480;28;20394;-55
2023/10/10 12:45:38;;;;;;;0.00;0.00;;;20.50;99.90;;;;;;4967564;28;20046;-56
2023/10/10 12:48:13;;;;;;;0.00;0.00;;;20.40;99.90;;;;;;4973147;28;20038;-56
2023/10/10 12:50:40;;;;;;;0.00;0.00;;;20.40;99.90;;;;;;4974150;28;20100;-57
2023/10/10 12:53:08;;;;;;;0.00;0.00;;;20.50;99.90;;;;;;4973077;28;20156;-58
2023/10/10 12:55:36;;;;;;;0.00;0.00;;;20.40;99.90;;;;;;4974027;28;20379;-57
2023/10/10 12:58:14;;;;;;;0.00;0.00;;;20.40;99.90;;;;;;4972667;28;20038;-55
2023/10/10 13:00:42;;;;;;;0.00;0.00;;;20.40;99.90;;;;;;4974286;28;20409;-58
2023/10/10 13:03:07;;;;;;;0.00;0.00;;;20.40;99.90;;;;;;4972964;28;20049;-57
2023/10/10 13:05:33;;;;;;;0.00;0.00;;;20.40;99.90;;;;;;4974264;28;20046;-57
2023/10/10 13:07:59;;;;;;;0.00;0.00;;;20.50;99.90;;;;;;4973895;28;20253;-55
2023/10/10 13:10:30;;;;;;;0.00;0.00;;;20.60;99.90;;;;;;4972947;28;20042;-56
2023/10/10 13:12:56;;;;;;;0.00;0.00;;;20.60;99.90;;;;;;4974312;28;20718;-57
2023/10/10 13:15:29;;;;;;;0.00;0.00;;;20.80;99.90;;;;;;4972778;28;20034;-55
2023/10/10 13:18:19;;;;;;;0.00;0.00;;;20.80;99.90;;;;;;4971567;28;20042;-56
2023/10/10 13:20:47;;;;;;;0.00;0.00;;;20.80;99.90;;;;;;4973211;28;20034;-55
2023/10/10 13:23:13;;;;;;;0.00;0.00;;;20.70;99.90;;;;;;4978891;28;20531;-55
2023/10/10 13:25:39;;;;;;;0.00;0.00;;;20.80;99.90;;;;;;4973209;28;20034;-54
2023/10/10 13:28:17;;;;;;;0.00;0.00;;;20.80;99.90;;;;;;4971140;28;20034;-54
2023/10/10 13:30:48;;;;;;;0.00;0.00;;;20.80;99.90;;;;;;4972333;28;20532;-55
2023/10/10 13:33:15;;;;;;;0.00;0.00;;;20.80;99.90;;;;;;4972665;28;20061;-52
2023/10/10 13:35:41;;;;;;;0.00;0.00;;;20.80;99.90;;;;;;4973105;28;20026;-56
2023/10/10 13:38:07;;;;;;;0.00;0.00;;;20.70;99.90;;;;;;4972547;28;20691;-55
2023/10/10 13:40:48;;;;;;;0.00;0.00;;;20.80;99.90;;;;;;4973188;28;20446;-56
2023/10/10 13:43:18;;;;;;;0.00;0.00;;;20.80;99.90;;;;;;4972105;28;20093;-56
2023/10/10 13:45:45;;;;;;;0.00;0.00;;;20.80;99.90;;;;;;4973239;28;20039;-56
2023/10/10 13:48:14;;;;;;;0.00;0.00;;;20.80;99.90;;;;;;4972514;28;20114;-57
2023/10/10 13:50:42;;;;;;;0.00;0.00;;;20.80;99.90;;;;;;4973748;28;20534;-57
2023/10/10 13:53:12;;;;;;;0.00;0.00;;;20.80;99.90;;;;;;4971401;28;20045;-57
2023/10/10 13:55:40;;;;;;;0.00;0.00;;;20.80;99.90;;;;;;4971211;28;20038;-57
2023/10/10 13:58:13;;;;;;;0.00;0.00;;;20.80;99.90;;;;;;4972115;28;20034;-55
2023/10/10 14:00:42;;;;;;;0.00;0.00;;;20.80;99.90;;;;;;4973569;28;20058;-55
2023/10/10 14:03:08;;;;;;;0.00;0.00;;;20.80;99.90;;;;;;4972059;28;20053;-56
2023/10/10 14:05:37;;;;;;;0.00;0.00;;;20.80;99.90;;;;;;4973076;28;20507;-56
2023/10/10 14:08:06;;;;;;;0.00;0.00;;;20.80;99.90;;;;;;4971756;28;20246;-57
2023/10/10 14:10:41;;;;;;;0.00;0.00;;;21.00;99.90;;;;;;4973313;28;20565;-54
2023/10/10 14:13:19;;;;;;;0.00;0.00;;;20.90;99.90;;;;;;4972442;28;20477;-55
2023/10/10 14:15:56;;;;;;;0.00;0.00;;;20.80;99.90;;;;;;4973278;28;20041;-56
2023/10/10 14:18:26;;;;;;;0.00;0.00;;;20.80;99.90;;;;;;4972242;28;20086;-56
2023/10/10 14:20:53;;;;;;;0.00;0.00;;;20.90;99.90;;;;;;4971634;28;20089;-56
2023/10/10 14:23:26;;;;;;;0.00;0.00;;;20.80;99.90;;;;;;4971681;28;20039;-56
2023/10/10 14:26:03;;;;;;;0.00;0.00;;;20.80;99.90;;;;;;4973244;28;20405;-57
2023/10/10 14:28:29;;;;;;;0.00;0.00;;;20.80;99.90;;;;;;4978973;28;20238;-55
2023/10/10 14:30:57;;;;;;;0.00;0.00;;;20.80;99.90;;;;;;4972621;28;20129;-56
2023/10/10 14:33:23;;;;;;;0.00;0.00;;;20.80;99.90;;;;;;4972330;28;20741;-57
2023/10/10 14:35:49;;;;;;;0.00;0.00;;;20.90;99.90;;;;;;4972906;28;20061;-56
2023/10/10 14:38:15;;;;;;;0.00;0.00;;;20.90;99.90;;;;;;4970099;28;20346;-56
2023/10/10 14:40:42;;;;;;;0.00;0.00;;;20.90;99.90;;;;;;4972339;28;20022;-55
2023/10/10 14:43:09;;;;;;;0.00;0.00;;;20.90;99.90;;;;;;4971695;28;20035;-55
2023/10/10 14:45:36;;;;;;;0.00;0.00;;;20.90;99.90;;;;;;4973086;28;20675;-56
2023/10/10 14:48:06;;;;;;;0.00;0.00;;;20.80;99.90;;;;;;4972371;28;20691;-57
2023/10/10 14:50:39;;;;;;;0.00;0.00;;;20.80;99.90;;;;;;4972496;28;20129;-56
2023/10/10 14:53:08;;;;;;;0.00;0.00;;;20.90;99.90;;;;;;4972053;28;20257;-57
2023/10/10 14:55:44;;;;;;;0.00;0.00;;;20.90;99.90;;;;;;4975184;28;20642;-56
2023/10/10 14:58:12;;;;;;;0.00;0.00;;;20.90;99.90;;;;;;4975430;28;20042;-56
2023/10/10 15:00:43;;;;;;;0.00;0.00;;;21.00;99.90;;;;;;4976106;28;20042;-56
2023/10/10 15:03:13;;;;;;;0.00;0.00;;;20.90;99.90;;;;;;4974319;28;20270;-54
2023/10/10 15:05:47;;;;;;;0.00;0.00;;;20.90;99.90;;;;;;4960091;28;20032;-58
2023/10/10 15:08:14;;;;;;;0.00;0.00;;;20.80;99.90;;;;;;4974822;28;20049;-56
2023/10/10 15:10:40;;;;;;;0.00;0.00;;;20.80;99.90;;;;;;4976107;28;20057;-57
2023/10/10 15:13:11;;;;;;;0.00;0.00;;;20.80;99.90;;;;;;4974682;28;20146;-56
2023/10/10 15:15:37;;;;;;;0.00;0.00;;;20.80;99.90;;;;;;4975943;28;20042;-57
2023/10/10 15:18:03;;;;;;;0.00;0.00;;;20.80;99.90;;;;;;4974868;28;20458;-57
2023/10/10 15:20:29;;;;;;;0.00;0.00;;;20.80;99.90;;;;;;4975782;28;20275;-55
2023/10/10 15:22:55;;;;;;;0.00;0.00;;;20.80;99.90;;;;;;4975695;28;20038;-55
2023/10/10 15:25:24;;;;;;;0.00;0.00;;;20.70;99.90;;;;;;4974499;28;20476;-55
2023/10/10 15:27:53;;;;;;;0.00;0.00;;;20.70;99.90;;;;;;4975944;28;20128;-58
2023/10/10 15:30:18;;;;;;;0.00;0.00;;;20.70;99.90;;;;;;4993009;28;20131;-56
2023/10/10 15:32:47;;;;;;;0.00;0.00;;;20.60;99.90;;;;;;4981998;28;20050;-56
2023/10/10 15:35:13;;;;;;;0.00;0.00;;;20.70;99.90;;;;;;4974327;28;20451;-58
2023/10/10 15:37:42;;;;;;;0.00;0.00;;;20.70;99.90;;;;;;4975779;28;20034;-56
2023/10/10 15:40:20;;;;;;;0.00;0.00;;;20.60;99.90;;;;;;4974649;28;20473;-58
2023/10/10 15:42:48;;;;;;;0.00;0.00;;;20.70;99.90;;;;;;4974705;28;20042;-54
2023/10/10 15:45:20;;;;;;;0.00;0.00;;;20.50;99.90;;;;;;4973975;28;20707;-57
2023/10/10 15:47:49;;;;;;;0.00;0.00;;;20.50;99.90;;;;;;4980655;28;20037;-56
2023/10/10 15:50:21;;;;;;;0.00;0.00;;;20.50;99.90;;;;;;4974171;28;20034;-55
2023/10/10 15:52:48;;;;;;;0.00;0.00;;;20.50;99.90;;;;;;4975166;28;20054;-57
2023/10/10 15:55:23;;;;;;;0.00;0.00;;;20.50;99.90;;;;;;4974294;28;20137;-57
2023/10/10 15:57:53;;;;;;;0.00;0.00;;;20.40;99.90;;;;;;4975146;28;20030;-56
2023/10/10 16:00:33;;;;;;;0.00;0.00;;;20.40;99.90;;;;;;4973828;28;20061;-56
2023/10/10 16:03:00;;;;;;;0.00;0.00;;;20.30;99.90;;;;;;4974875;28;20034;-56
2023/10/10 16:05:25;;;;;;;0.00;0.00;;;20.30;99.90;;;;;;4971466;28;20651;-56
2023/10/10 16:07:51;;;;;;;0.00;0.00;;;20.40;99.90;;;;;;4974675;28;20031;-56
2023/10/10 16:10:17;;;;;;;0.00;0.00;;;20.30;99.90;;;;;;4973813;28;20045;-57
2023/10/10 16:12:44;;;;;;;0.00;0.00;;;20.30;99.90;;;;;;4975084;28;20173;-54
2023/10/10 16:15:18;;;;;;;0.00;0.00;;;20.30;99.90;;;;;;4973626;28;20766;-56
2023/10/10 16:17:51;;;;;;;0.00;0.00;;;20.30;99.90;;;;;;4959369;28;20058;-56
2023/10/10 16:20:22;;;;;;;0.00;0.00;;;20.30;99.90;;;;;;4978972;28;20042;-56
2023/10/10 16:22:48;;;;;;;0.00;0.00;;;20.20;99.90;;;;;;4974988;28;20274;-57
2023/10/10 16:25:14;;;;;;;0.00;0.00;;;20.10;99.90;;;;;;4973649;28;20042;-57